sensor_id;sensor_type;location;lat;lon;timestamp;temperature;humidity
68354;DHT22;55274;43.060;25.618;2023-04-05T00:00:44;5.40;99.90
68354;DHT22;55274;43.060;25.618;2023-04-05T00:03:10;5.50;99.90
68354;DHT22;55274;43.060;25.618;2023-04-05T00:05:37;5.50;99.90
68354;DHT22;55274;43.060;25.618;2023-04-05T00:08:04;5.40;99.90
68354;DHT22;55274;43.060;25.618;2023-04-05T00:10:33;5.40;99.90
68354;DHT22;55274;43.060;25.618;2023-04-05T00:12:59;5.40;99.90
68354;DHT22;55274;43.060;25.618;2023-04-05T00:15:26;5.40;99.90
68354;DHT22;55274;43.060;25.618;2023-04-05T00:17:52;5.50;99.90
68354;DHT22;55274;43.060;25.618;2023-04-05T00:20:21;5.50;99.90
68354;DHT22;55274;43.060;25.618;2023-04-05T00:22:46;5.50;99.90
68354;DHT22;55274;43.060;25.618;2023-04-05T00:25:15;5.40;99.90
68354;DHT22;55274;43.060;25.618;2023-04-05T00:27:44;5.30;99.90
68354;DHT22;55274;43.060;25.618;2023-04-05T00:30:10;5.40;99.90
68354;DHT22;55274;43.060;25.618;2023-04-05T00:32:36;5.30;99.90
68354;DHT22;55274;43.060;25.618;2023-04-05T00:35:02;5.30;99.90
68354;DHT22;55274;43.060;25.618;2023-04-05T00:37:28;5.40;99.90
68354;DHT22;55274;43.060;25.618;2023-04-05T00:39:54;5.30;99.90
68354;DHT22;55274;43.060;25.618;2023-04-05T00:42:22;5.30;99.90
68354;DHT22;55274;43.060;25.618;2023-04-05T00:44:48;5.30;99.90
68354;DHT22;55274;43.060;25.618;2023-04-05T00:47:13;5.30;99.90
68354;DHT22;55274;43.060;25.618;2023-04-05T00:49:39;5.30;99.90
68354;DHT22;55274;43.060;25.618;2023-04-05T00:52:06;5.20;99.90
68354;DHT22;55274;43.060;25.618;2023-04-05T00:54:33;5.20;99.90
68354;DHT22;55274;43.060;25.618;2023-04-05T00:56:59;5.20;99.90
68354;DHT22;55274;43.060;25.618;2023-04-05T00:59:25;5.10;99.90
68354;DHT22;55274;43.060;25.618;2023-04-05T01:02:27;5.10;99.90
68354;DHT22;55274;43.060;25.618;2023-04-05T01:05:01;5.00;99.90
68354;DHT22;55274;43.060;25.618;2023-04-05T01:08:15;5.00;99.90
68354;DHT22;55274;43.060;25.618;2023-04-05T01:10:21;5.00;99.90
68354;DHT22;55274;43.060;25.618;2023-04-05T01:12:50;5.00;99.90
68354;DHT22;55274;43.060;25.618;2023-04-05T01:15:16;5.00;99.90
68354;DHT22;55274;43.060;25.618;2023-04-05T01:17:43;5.00;99.90
68354;DHT22;55274;43.060;25.618;2023-04-05T01:20:11;5.00;99.90
68354;DHT22;55274;43.060;25.618;2023-04-05T01:31:28;5.10;99.90
68354;DHT22;55274;43.060;25.618;2023-04-05T01:34:29;5.10;99.90
68354;DHT22;55274;43.060;25.618;2023-04-05T01:36:56;5.10;99.90
68354;DHT22;55274;43.060;25.618;2023-04-05T01:39:26;5.00;99.90
68354;DHT22;55274;43.060;25.618;2023-04-05T01:41:58;5.00;99.90
68354;DHT22;55274;43.060;25.618;2023-04-05T01:44:24;5.00;99.90
68354;DHT22;55274;43.060;25.618;2023-04-05T01:46:50;4.90;99.90
68354;DHT22;55274;43.060;25.618;2023-04-05T01:49:16;4.90;99.90
68354;DHT22;55274;43.060;25.618;2023-04-05T01:51:41;4.80;99.90
68354;DHT22;55274;43.060;25.618;2023-04-05T01:54:08;4.80;99.90
68354;DHT22;55274;43.060;25.618;2023-04-05T01:56:34;4.80;99.90
68354;DHT22;55274;43.060;25.618;2023-04-05T01:58:59;4.80;99.90
68354;DHT22;55274;43.060;25.618;2023-04-05T02:01:25;4.80;99.90
68354;DHT22;55274;43.060;25.618;2023-04-05T02:03:51;4.80;99.90
68354;DHT22;55274;43.060;25.618;2023-04-05T02:06:17;4.80;99.90
68354;DHT22;55274;43.060;25.618;2023-04-05T02:08:42;4.80;99.90
68354;DHT22;55274;43.060;25.618;2023-04-05T02:11:08;4.80;99.90
68354;DHT22;55274;43.060;25.618;2023-04-05T02:13:34;4.80;99.90
68354;DHT22;55274;43.060;25.618;2023-04-05T02:16:00;4.80;99.90
68354;DHT22;55274;43.060;25.618;2023-04-05T02:18:25;4.80;99.90
68354;DHT22;55274;43.060;25.618;2023-04-05T02:21:06;4.80;99.90
68354;DHT22;55274;43.060;25.618;2023-04-05T02:23:35;4.90;99.90
68354;DHT22;55274;43.060;25.618;2023-04-05T02:26:01;4.80;99.90
68354;DHT22;55274;43.060;25.618;2023-04-05T02:28:27;4.90;99.90
68354;DHT22;55274;43.060;25.618;2023-04-05T02:30:53;4.90;99.90
68354;DHT22;55274;43.060;25.618;2023-04-05T02:33:19;4.90;99.90
68354;DHT22;55274;43.060;25.618;2023-04-05T02:35:48;4.90;99.90
68354;DHT22;55274;43.060;25.618;2023-04-05T02:38:14;4.90;99.90
68354;DHT22;55274;43.060;25.618;2023-04-05T02:40:40;5.00;99.90
68354;DHT22;55274;43.060;25.618;2023-04-05T02:43:06;4.80;99.90
68354;DHT22;55274;43.060;25.618;2023-04-05T02:45:32;4.90;99.90
68354;DHT22;55274;43.060;25.618;2023-04-05T02:47:58;4.90;99.90
68354;DHT22;55274;43.060;25.618;2023-04-05T02:50:24;4.90;99.90
68354;DHT22;55274;43.060;25.618;2023-04-05T02:52:50;4.90;99.90
68354;DHT22;55274;43.060;25.618;2023-04-05T02:55:16;4.90;99.90
68354;DHT22;55274;43.060;25.618;2023-04-05T02:57:43;4.90;99.90
68354;DHT22;55274;43.060;25.618;2023-04-05T03:00:09;4.80;99.90
68354;DHT22;55274;43.060;25.618;2023-04-05T03:02:36;4.80;99.90
68354;DHT22;55274;43.060;25.618;2023-04-05T03:05:04;4.80;99.90
68354;DHT22;55274;43.060;25.618;2023-04-05T03:07:30;4.80;99.90
68354;DHT22;55274;43.060;25.618;2023-04-05T03:09:57;4.70;99.90
68354;DHT22;55274;43.060;25.618;2023-04-05T03:12:24;4.70;99.90
68354;DHT22;55274;43.060;25.618;2023-04-05T03:14:50;4.80;99.90
68354;DHT22;55274;43.060;25.618;2023-04-05T03:17:15;4.80;99.90
68354;DHT22;55274;43.060;25.618;2023-04-05T03:19:41;4.80;99.90
68354;DHT22;55274;43.060;25.618;2023-04-05T03:22:07;4.80;99.90
68354;DHT22;55274;43.060;25.618;2023-04-05T03:24:33;4.80;99.90
68354;DHT22;55274;43.060;25.618;2023-04-05T03:27:02;4.80;99.90
68354;DHT22;55274;43.060;25.618;2023-04-05T03:29:30;4.80;99.90
68354;DHT22;55274;43.060;25.618;2023-04-05T03:31:59;4.70;99.90
68354;DHT22;55274;43.060;25.618;2023-04-05T03:34:25;4.70;99.90
68354;DHT22;55274;43.060;25.618;2023-04-05T03:36:53;4.70;99.90
68354;DHT22;55274;43.060;25.618;2023-04-05T03:39:20;4.70;99.90
68354;DHT22;55274;43.060;25.618;2023-04-05T03:41:46;4.70;99.90
68354;DHT22;55274;43.060;25.618;2023-04-05T03:44:11;4.60;99.90
68354;DHT22;55274;43.060;25.618;2023-04-05T03:46:37;4.70;99.90
68354;DHT22;55274;43.060;25.618;2023-04-05T03:49:04;4.70;99.90
68354;DHT22;55274;43.060;25.618;2023-04-05T03:51:30;4.70;99.90
68354;DHT22;55274;43.060;25.618;2023-04-05T03:53:57;4.70;99.90
68354;DHT22;55274;43.060;25.618;2023-04-05T03:56:22;4.70;99.90
68354;DHT22;55274;43.060;25.618;2023-04-05T03:58:51;4.70;99.90
68354;DHT22;55274;43.060;25.618;2023-04-05T04:01:17;4.70;99.90
68354;DHT22;55274;43.060;25.618;2023-04-05T04:03:43;4.70;99.90
68354;DHT22;55274;43.060;25.618;2023-04-05T04:06:09;4.70;99.90
68354;DHT22;55274;43.060;25.618;2023-04-05T04:08:35;4.60;99.90
68354;DHT22;55274;43.060;25.618;2023-04-05T04:11:01;4.70;99.90
68354;DHT22;55274;43.060;25.618;2023-04-05T04:13:27;4.70;99.90
68354;DHT22;55274;43.060;25.618;2023-04-05T04:15:53;4.70;99.90
68354;DHT22;55274;43.060;25.618;2023-04-05T04:18:19;4.60;99.90
68354;DHT22;55274;43.060;25.618;2023-04-05T04:20:45;4.60;99.90
68354;DHT22;55274;43.060;25.618;2023-04-05T04:23:12;4.60;99.90
68354;DHT22;55274;43.060;25.618;2023-04-05T04:25:39;4.60;99.90
68354;DHT22;55274;43.060;25.618;2023-04-05T04:28:05;4.60;99.90
68354;DHT22;55274;43.060;25.618;2023-04-05T04:30:32;4.60;99.90
68354;DHT22;55274;43.060;25.618;2023-04-05T04:33:02;4.60;99.90
68354;DHT22;55274;43.060;25.618;2023-04-05T04:35:32;4.70;99.90
68354;DHT22;55274;43.060;25.618;2023-04-05T04:38:04;4.70;99.90
68354;DHT22;55274;43.060;25.618;2023-04-05T04:43:07;4.70;99.90
68354;DHT22;55274;43.060;25.618;2023-04-05T04:45:46;4.70;99.90
68354;DHT22;55274;43.060;25.618;2023-04-05T04:48:16;4.70;99.90
68354;DHT22;55274;43.060;25.618;2023-04-05T04:50:44;4.70;99.90
68354;DHT22;55274;43.060;25.618;2023-04-05T04:53:10;4.80;99.90
68354;DHT22;55274;43.060;25.618;2023-04-05T04:55:37;4.80;99.90
68354;DHT22;55274;43.060;25.618;2023-04-05T04:58:03;4.90;99.90
68354;DHT22;55274;43.060;25.618;2023-04-05T05:00:34;5.00;99.90
68354;DHT22;55274;43.060;25.618;2023-04-05T05:03:02;5.10;99.90
68354;DHT22;55274;43.060;25.618;2023-04-05T05:05:27;5.20;99.90
68354;DHT22;55274;43.060;25.618;2023-04-05T05:07:53;5.20;99.90
68354;DHT22;55274;43.060;25.618;2023-04-05T05:10:19;5.30;99.90
68354;DHT22;55274;43.060;25.618;2023-04-05T05:12:45;5.50;99.90
68354;DHT22;55274;43.060;25.618;2023-04-05T05:15:13;5.60;99.90
68354;DHT22;55274;43.060;25.618;2023-04-05T05:17:39;5.80;99.90
68354;DHT22;55274;43.060;25.618;2023-04-05T05:20:06;5.90;99.90
68354;DHT22;55274;43.060;25.618;2023-04-05T05:22:36;6.10;99.90
68354;DHT22;55274;43.060;25.618;2023-04-05T05:25:02;6.30;99.90
68354;DHT22;55274;43.060;25.618;2023-04-05T05:27:28;6.40;99.90
68354;DHT22;55274;43.060;25.618;2023-04-05T05:29:54;6.40;99.90
68354;DHT22;55274;43.060;25.618;2023-04-05T05:32:20;6.40;99.90
68354;DHT22;55274;43.060;25.618;2023-04-05T05:34:48;6.50;99.90
68354;DHT22;55274;43.060;25.618;2023-04-05T05:37:13;6.60;99.90
68354;DHT22;55274;43.060;25.618;2023-04-05T05:39:41;6.70;99.90
68354;DHT22;55274;43.060;25.618;2023-04-05T05:42:06;6.80;99.90
68354;DHT22;55274;43.060;25.618;2023-04-05T05:44:32;6.90;99.90
68354;DHT22;55274;43.060;25.618;2023-04-05T05:46:58;6.80;99.90
68354;DHT22;55274;43.060;25.618;2023-04-05T05:49:24;6.80;99.90
68354;DHT22;55274;43.060;25.618;2023-04-05T05:51:50;6.80;99.90
68354;DHT22;55274;43.060;25.618;2023-04-05T05:54:17;6.90;99.90
68354;DHT22;55274;43.060;25.618;2023-04-05T05:56:43;7.00;99.90
68354;DHT22;55274;43.060;25.618;2023-04-05T05:59:09;7.10;99.90
68354;DHT22;55274;43.060;25.618;2023-04-05T06:01:35;7.10;99.90
68354;DHT22;55274;43.060;25.618;2023-04-05T06:04:07;7.20;99.90
68354;DHT22;55274;43.060;25.618;2023-04-05T06:06:33;7.30;99.90
68354;DHT22;55274;43.060;25.618;2023-04-05T06:09:00;7.40;99.90
68354;DHT22;55274;43.060;25.618;2023-04-05T06:11:26;7.30;99.90
68354;DHT22;55274;43.060;25.618;2023-04-05T06:13:52;7.30;99.90
68354;DHT22;55274;43.060;25.618;2023-04-05T06:16:20;7.30;99.90
68354;DHT22;55274;43.060;25.618;2023-04-05T06:18:46;7.20;99.90
68354;DHT22;55274;43.060;25.618;2023-04-05T06:21:13;7.20;99.90
68354;DHT22;55274;43.060;25.618;2023-04-05T06:23:40;7.20;99.90
68354;DHT22;55274;43.060;25.618;2023-04-05T06:26:07;7.30;99.90
68354;DHT22;55274;43.060;25.618;2023-04-05T06:28:33;7.40;99.90
68354;DHT22;55274;43.060;25.618;2023-04-05T06:30:59;7.40;99.90
68354;DHT22;55274;43.060;25.618;2023-04-05T06:33:25;7.50;99.90
68354;DHT22;55274;43.060;25.618;2023-04-05T06:35:51;7.60;99.90
68354;DHT22;55274;43.060;25.618;2023-04-05T06:38:17;7.60;99.90
68354;DHT22;55274;43.060;25.618;2023-04-05T06:40:43;7.60;99.90
68354;DHT22;55274;43.060;25.618;2023-04-05T06:43:09;7.80;99.90
68354;DHT22;55274;43.060;25.618;2023-04-05T06:45:38;7.80;99.90
68354;DHT22;55274;43.060;25.618;2023-04-05T06:48:04;7.90;99.90
68354;DHT22;55274;43.060;25.618;2023-04-05T06:50:31;7.80;99.90
68354;DHT22;55274;43.060;25.618;2023-04-05T06:52:56;7.70;99.90
68354;DHT22;55274;43.060;25.618;2023-04-05T06:55:22;7.60;99.90
68354;DHT22;55274;43.060;25.618;2023-04-05T06:57:48;7.70;99.90
68354;DHT22;55274;43.060;25.618;2023-04-05T07:00:14;7.60;99.90
68354;DHT22;55274;43.060;25.618;2023-04-05T07:02:42;7.50;99.90
68354;DHT22;55274;43.060;25.618;2023-04-05T07:05:08;7.50;99.90
68354;DHT22;55274;43.060;25.618;2023-04-05T07:07:41;7.50;99.90
68354;DHT22;55274;43.060;25.618;2023-04-05T07:10:09;7.50;99.90
68354;DHT22;55274;43.060;25.618;2023-04-05T07:12:36;7.60;99.90
68354;DHT22;55274;43.060;25.618;2023-04-05T07:15:02;7.60;99.90
68354;DHT22;55274;43.060;25.618;2023-04-05T07:17:28;7.50;99.90
68354;DHT22;55274;43.060;25.618;2023-04-05T07:19:53;7.50;99.90
68354;DHT22;55274;43.060;25.618;2023-04-05T07:22:21;7.50;99.90
68354;DHT22;55274;43.060;25.618;2023-04-05T07:24:46;7.50;99.90
68354;DHT22;55274;43.060;25.618;2023-04-05T07:27:13;7.50;99.90
68354;DHT22;55274;43.060;25.618;2023-04-05T07:29:39;7.50;99.90
68354;DHT22;55274;43.060;25.618;2023-04-05T07:32:08;7.60;99.90
68354;DHT22;55274;43.060;25.618;2023-04-05T07:34:34;7.60;99.90
68354;DHT22;55274;43.060;25.618;2023-04-05T07:37:03;7.70;99.90
68354;DHT22;55274;43.060;25.618;2023-04-05T07:39:29;7.60;99.90
68354;DHT22;55274;43.060;25.618;2023-04-05T07:41:55;7.60;99.90
68354;DHT22;55274;43.060;25.618;2023-04-05T07:44:21;7.70;99.90
68354;DHT22;55274;43.060;25.618;2023-04-05T07:46:47;7.70;99.90
68354;DHT22;55274;43.060;25.618;2023-04-05T07:49:12;7.70;99.90
68354;DHT22;55274;43.060;25.618;2023-04-05T07:51:38;7.80;99.90
68354;DHT22;55274;43.060;25.618;2023-04-05T07:54:05;7.80;99.90
68354;DHT22;55274;43.060;25.618;2023-04-05T07:56:31;7.80;99.90
68354;DHT22;55274;43.060;25.618;2023-04-05T07:58:59;7.80;99.90
68354;DHT22;55274;43.060;25.618;2023-04-05T08:01:25;7.80;99.90
68354;DHT22;55274;43.060;25.618;2023-04-05T08:03:56;7.90;99.90
68354;DHT22;55274;43.060;25.618;2023-04-05T08:06:22;7.90;99.90
68354;DHT22;55274;43.060;25.618;2023-04-05T08:08:49;8.00;99.90
68354;DHT22;55274;43.060;25.618;2023-04-05T08:11:15;8.00;99.90
68354;DHT22;55274;43.060;25.618;2023-04-05T08:13:41;8.00;99.90
68354;DHT22;55274;43.060;25.618;2023-04-05T08:16:09;8.10;99.90
68354;DHT22;55274;43.060;25.618;2023-04-05T08:18:35;8.10;99.90
68354;DHT22;55274;43.060;25.618;2023-04-05T08:21:01;8.10;99.90
68354;DHT22;55274;43.060;25.618;2023-04-05T08:23:27;8.10;99.50
68354;DHT22;55274;43.060;25.618;2023-04-05T08:25:53;8.10;99.90
68354;DHT22;55274;43.060;25.618;2023-04-05T08:28:19;8.20;99.90
68354;DHT22;55274;43.060;25.618;2023-04-05T08:30:46;8.00;99.90
68354;DHT22;55274;43.060;25.618;2023-04-05T08:33:12;8.10;99.90
68354;DHT22;55274;43.060;25.618;2023-04-05T08:35:38;8.10;99.90
68354;DHT22;55274;43.060;25.618;2023-04-05T08:38:05;8.20;99.80
68354;DHT22;55274;43.060;25.618;2023-04-05T08:40:42;8.20;99.90
68354;DHT22;55274;43.060;25.618;2023-04-05T08:45:49;8.30;99.90
68354;DHT22;55274;43.060;25.618;2023-04-05T08:48:16;8.40;99.90
68354;DHT22;55274;43.060;25.618;2023-04-05T08:50:48;8.40;99.90
68354;DHT22;55274;43.060;25.618;2023-04-05T08:53:14;8.40;99.90
68354;DHT22;55274;43.060;25.618;2023-04-05T08:55:40;8.40;99.90
68354;DHT22;55274;43.060;25.618;2023-04-05T08:58:13;8.50;99.90
68354;DHT22;55274;43.060;25.618;2023-04-05T09:00:40;8.50;99.90
68354;DHT22;55274;43.060;25.618;2023-04-05T09:03:10;8.50;99.90
68354;DHT22;55274;43.060;25.618;2023-04-05T09:05:38;8.60;99.90
68354;DHT22;55274;43.060;25.618;2023-04-05T09:08:05;8.50;98.60
68354;DHT22;55274;43.060;25.618;2023-04-05T09:10:31;8.60;99.90
68354;DHT22;55274;43.060;25.618;2023-04-05T09:12:59;8.60;98.20
68354;DHT22;55274;43.060;25.618;2023-04-05T09:15:25;8.60;98.40
68354;DHT22;55274;43.060;25.618;2023-04-05T09:17:53;8.60;97.70
68354;DHT22;55274;43.060;25.618;2023-04-05T09:20:20;8.50;98.20
68354;DHT22;55274;43.060;25.618;2023-04-05T09:22:46;8.60;98.60
68354;DHT22;55274;43.060;25.618;2023-04-05T09:27:58;8.80;99.70
68354;DHT22;55274;43.060;25.618;2023-04-05T09:30:25;8.90;99.50
68354;DHT22;55274;43.060;25.618;2023-04-05T09:32:53;8.90;98.50
68354;DHT22;55274;43.060;25.618;2023-04-05T09:35:27;8.90;98.50
68354;DHT22;55274;43.060;25.618;2023-04-05T09:38:04;8.90;98.30
68354;DHT22;55274;43.060;25.618;2023-04-05T09:40:59;8.90;97.00
68354;DHT22;55274;43.060;25.618;2023-04-05T09:43:40;9.00;97.40
68354;DHT22;55274;43.060;25.618;2023-04-05T09:46:14;8.90;95.70
68354;DHT22;55274;43.060;25.618;2023-04-05T09:48:50;9.00;96.50
68354;DHT22;55274;43.060;25.618;2023-04-05T09:51:17;9.20;98.50
68354;DHT22;55274;43.060;25.618;2023-04-05T09:54:06;9.30;97.70
68354;DHT22;55274;43.060;25.618;2023-04-05T09:56:35;9.30;96.40
68354;DHT22;55274;43.060;25.618;2023-04-05T09:59:06;9.30;95.40
68354;DHT22;55274;43.060;25.618;2023-04-05T10:01:32;9.30;96.20
68354;DHT22;55274;43.060;25.618;2023-04-05T10:03:58;9.40;95.60
68354;DHT22;55274;43.060;25.618;2023-04-05T10:06:39;9.40;95.60
68354;DHT22;55274;43.060;25.618;2023-04-05T10:09:06;9.40;95.30
68354;DHT22;55274;43.060;25.618;2023-04-05T10:11:33;9.60;95.80
68354;DHT22;55274;43.060;25.618;2023-04-05T10:14:03;9.60;94.10
68354;DHT22;55274;43.060;25.618;2023-04-05T10:16:32;9.70;94.00
68354;DHT22;55274;43.060;25.618;2023-04-05T10:19:01;9.70;93.80
68354;DHT22;55274;43.060;25.618;2023-04-05T10:21:33;9.90;94.20
68354;DHT22;55274;43.060;25.618;2023-04-05T10:24:23;9.80;91.40
68354;DHT22;55274;43.060;25.618;2023-04-05T10:27:03;10.00;93.60
68354;DHT22;55274;43.060;25.618;2023-04-05T10:29:40;9.90;91.20
68354;DHT22;55274;43.060;25.618;2023-04-05T10:32:12;9.90;91.90
68354;DHT22;55274;43.060;25.618;2023-04-05T10:34:47;9.90;92.30
68354;DHT22;55274;43.060;25.618;2023-04-05T10:40:11;9.90;92.10
68354;DHT22;55274;43.060;25.618;2023-04-05T10:42:45;9.90;91.90
68354;DHT22;55274;43.060;25.618;2023-04-05T10:45:13;9.80;91.90
68354;DHT22;55274;43.060;25.618;2023-04-05T10:47:47;9.90;91.50
68354;DHT22;55274;43.060;25.618;2023-04-05T10:50:32;10.00;92.00
68354;DHT22;55274;43.060;25.618;2023-04-05T10:52:59;10.10;91.90
68354;DHT22;55274;43.060;25.618;2023-04-05T10:55:25;10.00;89.30
68354;DHT22;55274;43.060;25.618;2023-04-05T10:57:52;10.20;90.20
68354;DHT22;55274;43.060;25.618;2023-04-05T11:00:19;10.30;90.00
68354;DHT22;55274;43.060;25.618;2023-04-05T11:02:47;10.30;88.30
68354;DHT22;55274;43.060;25.618;2023-04-05T11:05:35;10.10;88.40
68354;DHT22;55274;43.060;25.618;2023-04-05T11:08:04;10.10;88.80
68354;DHT22;55274;43.060;25.618;2023-04-05T11:10:32;10.00;89.40
68354;DHT22;55274;43.060;25.618;2023-04-05T11:18:03;10.10;88.70
68354;DHT22;55274;43.060;25.618;2023-04-05T11:23:08;10.00;90.70
68354;DHT22;55274;43.060;25.618;2023-04-05T11:25:39;10.00;90.60
68354;DHT22;55274;43.060;25.618;2023-04-05T11:28:05;10.00;90.50
68354;DHT22;55274;43.060;25.618;2023-04-05T11:30:50;10.00;89.90
68354;DHT22;55274;43.060;25.618;2023-04-05T11:33:36;10.10;90.20
68354;DHT22;55274;43.060;25.618;2023-04-05T11:36:02;10.10;88.00
68354;DHT22;55274;43.060;25.618;2023-04-05T11:38:28;10.20;87.80
68354;DHT22;55274;43.060;25.618;2023-04-05T11:41:15;10.40;87.00
68354;DHT22;55274;43.060;25.618;2023-04-05T11:43:46;10.60;88.10
68354;DHT22;55274;43.060;25.618;2023-04-05T11:46:15;10.70;88.80
68354;DHT22;55274;43.060;25.618;2023-04-05T11:48:41;10.70;86.80
68354;DHT22;55274;43.060;25.618;2023-04-05T11:51:08;10.70;87.80
68354;DHT22;55274;43.060;25.618;2023-04-05T11:53:37;10.70;86.90
68354;DHT22;55274;43.060;25.618;2023-04-05T11:56:08;10.80;86.90
68354;DHT22;55274;43.060;25.618;2023-04-05T11:58:35;10.80;86.70
68354;DHT22;55274;43.060;25.618;2023-04-05T12:01:06;10.80;86.80
68354;DHT22;55274;43.060;25.618;2023-04-05T12:03:33;10.70;85.70
68354;DHT22;55274;43.060;25.618;2023-04-05T12:06:00;10.60;86.00
68354;DHT22;55274;43.060;25.618;2023-04-05T12:08:43;10.70;86.70
68354;DHT22;55274;43.060;25.618;2023-04-05T12:11:28;10.80;86.60
68354;DHT22;55274;43.060;25.618;2023-04-05T12:13:56;11.00;84.50
68354;DHT22;55274;43.060;25.618;2023-04-05T12:16:26;11.00;84.00
68354;DHT22;55274;43.060;25.618;2023-04-05T12:18:59;11.00;85.10
68354;DHT22;55274;43.060;25.618;2023-04-05T12:21:26;11.10;86.20
68354;DHT22;55274;43.060;25.618;2023-04-05T12:23:53;11.00;83.60
68354;DHT22;55274;43.060;25.618;2023-04-05T12:26:19;11.00;84.50
68354;DHT22;55274;43.060;25.618;2023-04-05T12:28:54;10.90;83.40
68354;DHT22;55274;43.060;25.618;2023-04-05T12:31:36;10.80;84.40
68354;DHT22;55274;43.060;25.618;2023-04-05T12:34:02;10.90;84.60
68354;DHT22;55274;43.060;25.618;2023-04-05T12:36:29;11.00;84.80
68354;DHT22;55274;43.060;25.618;2023-04-05T12:38:56;10.90;83.80
68354;DHT22;55274;43.060;25.618;2023-04-05T12:41:32;11.00;84.10
68354;DHT22;55274;43.060;25.618;2023-04-05T12:43:58;11.00;83.50
68354;DHT22;55274;43.060;25.618;2023-04-05T12:49:11;11.00;82.10
68354;DHT22;55274;43.060;25.618;2023-04-05T12:51:41;11.10;83.80
68354;DHT22;55274;43.060;25.618;2023-04-05T12:54:10;11.10;83.90
68354;DHT22;55274;43.060;25.618;2023-04-05T12:56:37;11.20;83.50
68354;DHT22;55274;43.060;25.618;2023-04-05T12:59:04;11.40;83.90
68354;DHT22;55274;43.060;25.618;2023-04-05T13:01:32;11.50;82.10
68354;DHT22;55274;43.060;25.618;2023-04-05T13:03:59;11.40;81.60
68354;DHT22;55274;43.060;25.618;2023-04-05T13:06:26;11.30;82.40
68354;DHT22;55274;43.060;25.618;2023-04-05T13:08:52;11.20;82.20
68354;DHT22;55274;43.060;25.618;2023-04-05T13:11:18;11.10;82.50
68354;DHT22;55274;43.060;25.618;2023-04-05T13:13:45;11.00;83.70
68354;DHT22;55274;43.060;25.618;2023-04-05T13:16:11;11.00;83.80
68354;DHT22;55274;43.060;25.618;2023-04-05T13:18:36;11.00;85.10
68354;DHT22;55274;43.060;25.618;2023-04-05T13:21:02;10.90;83.60
68354;DHT22;55274;43.060;25.618;2023-04-05T13:23:33;10.80;82.90
68354;DHT22;55274;43.060;25.618;2023-04-05T13:25:59;10.60;82.60
68354;DHT22;55274;43.060;25.618;2023-04-05T13:28:25;10.60;84.70
68354;DHT22;55274;43.060;25.618;2023-04-05T13:30:51;10.60;83.50
68354;DHT22;55274;43.060;25.618;2023-04-05T13:33:18;10.60;85.40
68354;DHT22;55274;43.060;25.618;2023-04-05T13:35:44;10.60;85.20
68354;DHT22;55274;43.060;25.618;2023-04-05T13:38:10;10.60;84.80
68354;DHT22;55274;43.060;25.618;2023-04-05T13:40:36;10.60;85.30
68354;DHT22;55274;43.060;25.618;2023-04-05T13:43:02;10.70;85.70
68354;DHT22;55274;43.060;25.618;2023-04-05T13:45:31;10.70;85.40
68354;DHT22;55274;43.060;25.618;2023-04-05T13:47:57;10.60;85.40
68354;DHT22;55274;43.060;25.618;2023-04-05T13:50:24;10.50;84.00
68354;DHT22;55274;43.060;25.618;2023-04-05T13:52:50;10.60;84.80
68354;DHT22;55274;43.060;25.618;2023-04-05T13:55:16;10.60;84.60
68354;DHT22;55274;43.060;25.618;2023-04-05T13:57:42;10.70;85.30
68354;DHT22;55274;43.060;25.618;2023-04-05T14:00:09;10.60;83.80
68354;DHT22;55274;43.060;25.618;2023-04-05T14:02:35;10.70;85.60
68354;DHT22;55274;43.060;25.618;2023-04-05T14:05:01;10.60;84.70
68354;DHT22;55274;43.060;25.618;2023-04-05T14:07:27;10.60;83.90
68354;DHT22;55274;43.060;25.618;2023-04-05T14:09:54;10.50;84.70
68354;DHT22;55274;43.060;25.618;2023-04-05T14:12:22;10.40;83.40
68354;DHT22;55274;43.060;25.618;2023-04-05T14:14:49;10.30;84.00
68354;DHT22;55274;43.060;25.618;2023-04-05T14:17:15;10.30;84.40
68354;DHT22;55274;43.060;25.618;2023-04-05T14:19:41;10.20;83.80
68354;DHT22;55274;43.060;25.618;2023-04-05T14:22:07;10.20;84.80
68354;DHT22;55274;43.060;25.618;2023-04-05T14:24:33;10.30;85.40
68354;DHT22;55274;43.060;25.618;2023-04-05T14:26:59;10.30;86.00
68354;DHT22;55274;43.060;25.618;2023-04-05T14:29:25;10.30;85.40
68354;DHT22;55274;43.060;25.618;2023-04-05T14:31:53;10.30;85.40
68354;DHT22;55274;43.060;25.618;2023-04-05T14:34:19;10.30;85.90
68354;DHT22;55274;43.060;25.618;2023-04-05T14:36:45;10.20;85.80
68354;DHT22;55274;43.060;25.618;2023-04-05T14:39:11;10.20;86.20
68354;DHT22;55274;43.060;25.618;2023-04-05T14:41:37;10.20;85.80
68354;DHT22;55274;43.060;25.618;2023-04-05T14:44:03;10.30;86.90
68354;DHT22;55274;43.060;25.618;2023-04-05T14:46:29;10.20;85.80
68354;DHT22;55274;43.060;25.618;2023-04-05T14:48:55;10.20;86.60
68354;DHT22;55274;43.060;25.618;2023-04-05T14:51:20;10.20;86.80
68354;DHT22;55274;43.060;25.618;2023-04-05T14:53:46;10.10;86.80
68354;DHT22;55274;43.060;25.618;2023-04-05T14:56:12;10.10;86.20
68354;DHT22;55274;43.060;25.618;2023-04-05T14:58:38;10.10;87.40
68354;DHT22;55274;43.060;25.618;2023-04-05T15:01:04;10.10;86.50
68354;DHT22;55274;43.060;25.618;2023-04-05T15:03:33;10.00;86.90
68354;DHT22;55274;43.060;25.618;2023-04-05T15:05:59;10.00;87.00
68354;DHT22;55274;43.060;25.618;2023-04-05T15:08:24;9.90;88.00
68354;DHT22;55274;43.060;25.618;2023-04-05T15:10:50;9.90;88.00
68354;DHT22;55274;43.060;25.618;2023-04-05T15:13:16;9.80;89.00
68354;DHT22;55274;43.060;25.618;2023-04-05T15:15:44;9.90;88.80
68354;DHT22;55274;43.060;25.618;2023-04-05T15:18:10;9.80;88.90
68354;DHT22;55274;43.060;25.618;2023-04-05T15:20:35;9.80;88.80
68354;DHT22;55274;43.060;25.618;2023-04-05T15:23:01;9.70;88.80
68354;DHT22;55274;43.060;25.618;2023-04-05T15:25:27;9.70;89.10
68354;DHT22;55274;43.060;25.618;2023-04-05T15:27:53;9.70;89.10
68354;DHT22;55274;43.060;25.618;2023-04-05T15:30:22;9.60;89.70
68354;DHT22;55274;43.060;25.618;2023-04-05T15:32:48;9.60;89.70
68354;DHT22;55274;43.060;25.618;2023-04-05T15:35:14;9.60;90.30
68354;DHT22;55274;43.060;25.618;2023-04-05T15:37:40;9.50;90.20
68354;DHT22;55274;43.060;25.618;2023-04-05T15:40:06;9.50;90.50
68354;DHT22;55274;43.060;25.618;2023-04-05T15:42:33;9.50;91.20
68354;DHT22;55274;43.060;25.618;2023-04-05T15:44:59;9.40;90.90
68354;DHT22;55274;43.060;25.618;2023-04-05T15:47:24;9.40;90.90
68354;DHT22;55274;43.060;25.618;2023-04-05T15:49:50;9.40;92.00
68354;DHT22;55274;43.060;25.618;2023-04-05T15:52:16;9.30;91.80
68354;DHT22;55274;43.060;25.618;2023-04-05T15:54:42;9.20;91.90
68354;DHT22;55274;43.060;25.618;2023-04-05T15:57:11;9.20;92.50
68354;DHT22;55274;43.060;25.618;2023-04-05T15:59:37;9.10;93.60
68354;DHT22;55274;43.060;25.618;2023-04-05T16:02:03;9.10;94.70